Tuckahoe, New York
Current Conditions -  °F | °C
As of 8:56 AM on Tuesday 21 Oct 2014 (Local Time) from KHPN Reporting Station
Few Clouds Few Clouds  
Wind Chill: 12°   Ceiling: Unl
Heat Index: 12°   Visibility: 10mi
Dew Point:   Wind: 3mph
Humidity: 83%   Direction: 90°E
Pressure: 29.9"   Gusts: NA
Location:  40.95°N, 73.83°W
Report Text: KHPN 211256Z 09003KT 10SM FEW110 12/09 A2990 RMK AO2 SLP126 T01170089
Loading
Personal Weather Stations






























Interactive Weather Map
Tropical Storm Tracking
New forecast layout! Learn more

10-Day Weather Forecast

Advertisements
Track Severe Weather on mobile